createdAt,value
2019-02-06T00:00:41.719Z,13.40
2019-02-06T00:03:14.009Z,12.83
2019-02-06T00:05:44.736Z,13.53
2019-02-06T00:08:15.371Z,12.83
2019-02-06T00:10:45.990Z,12.30
2019-02-06T00:13:16.329Z,13.27
2019-02-06T00:15:46.947Z,11.83
2019-02-06T00:18:17.331Z,12.73
2019-02-06T00:20:47.951Z,12.60
2019-02-06T00:23:18.551Z,12.03
2019-02-06T00:25:49.254Z,12.73
2019-02-06T00:28:19.881Z,13.27
2019-02-06T00:30:51.031Z,13.10
2019-02-06T00:33:21.615Z,13.03
2019-02-06T00:35:52.390Z,12.67
2019-02-06T00:38:22.650Z,13.97
2019-02-06T00:40:53.359Z,12.13
2019-02-06T00:43:23.975Z,13.03
2019-02-06T00:45:55.063Z,12.87
2019-02-06T00:48:25.703Z,12.13
2019-02-06T00:50:55.980Z,13.00
2019-02-06T00:53:26.593Z,12.77
2019-02-06T00:55:57.141Z,12.67
2019-02-06T00:58:27.716Z,13.40
2019-02-06T01:00:58.298Z,11.63
2019-02-06T01:03:28.951Z,12.27
2019-02-06T01:05:59.560Z,11.97
2019-02-06T01:08:30.086Z,12.90
2019-02-06T01:11:00.554Z,11.83
2019-02-06T01:13:31.136Z,11.80
2019-02-06T01:16:01.778Z,11.83
2019-02-06T01:18:32.332Z,11.70
2019-02-06T01:21:02.866Z,12.40
2019-02-06T01:23:33.602Z,11.93
2019-02-06T01:26:04.633Z,11.43
2019-02-06T01:28:35.349Z,12.43
2019-02-06T01:31:07.537Z,11.80
2019-02-06T01:33:38.248Z,12.13
2019-02-06T01:36:08.882Z,12.53
2019-02-06T01:38:39.642Z,11.50
2019-02-06T01:41:10.482Z,11.53
2019-02-06T01:43:41.211Z,11.17
2019-02-06T01:46:11.917Z,11.43
2019-02-06T01:48:42.544Z,11.00
2019-02-06T01:51:13.208Z,11.40
2019-02-06T01:53:44.454Z,12.47
2019-02-06T01:56:15.086Z,11.10
2019-02-06T01:58:45.715Z,12.03
2019-02-06T02:01:16.552Z,11.73
2019-02-06T02:03:47.186Z,11.60
2019-02-06T02:06:18.013Z,11.43
2019-02-06T02:08:50.422Z,11.60
2019-02-06T02:11:21.018Z,11.67
2019-02-06T02:13:51.761Z,11.33
2019-02-06T02:16:23.517Z,11.60
2019-02-06T02:18:53.832Z,11.83
2019-02-06T02:21:24.771Z,10.63
2019-02-06T02:23:55.608Z,12.13
2019-02-06T02:26:26.338Z,11.77
2019-02-06T02:28:56.971Z,11.40
2019-02-06T02:31:27.616Z,10.70
2019-02-06T02:33:59.972Z,11.27
2019-02-06T02:36:30.540Z,11.97
2019-02-06T02:39:01.251Z,11.50
2019-02-06T02:41:31.588Z,11.53
2019-02-06T02:44:02.343Z,11.63
2019-02-06T02:46:32.724Z,11.23
2019-02-06T02:49:03.475Z,12.37
2019-02-06T02:51:33.977Z,11.67
2019-02-06T02:54:04.602Z,11.87
2019-02-06T02:56:35.344Z,11.07
2019-02-06T02:59:06.017Z,11.37
2019-02-06T03:01:50.747Z,11.73
2019-02-06T03:04:23.029Z,11.73
2019-02-06T03:06:53.652Z,11.93
2019-02-06T03:09:24.192Z,11.93
2019-02-06T03:11:55.316Z,12.83
2019-02-06T03:14:27.514Z,12.00
2019-02-06T03:16:57.705Z,13.50
2019-02-06T03:19:27.966Z,13.13
2019-02-06T03:21:58.571Z,13.27
2019-02-06T03:24:29.293Z,13.63
2019-02-06T03:26:59.823Z,13.17
2019-02-06T03:29:30.462Z,14.17
2019-02-06T03:32:01.007Z,13.63
2019-02-06T03:34:31.745Z,13.30
2019-02-06T03:37:02.250Z,14.20
2019-02-06T03:39:33.315Z,13.73
2019-02-06T03:42:03.940Z,13.37
2019-02-06T03:44:34.569Z,13.33
2019-02-06T03:47:05.208Z,13.57
2019-02-06T03:49:35.831Z,13.00
2019-02-06T03:52:06.365Z,14.37
2019-02-06T03:54:37.111Z,13.87
2019-02-06T03:57:07.630Z,14.43
2019-02-06T03:59:38.343Z,14.33
2019-02-06T04:02:08.895Z,14.57
2019-02-06T04:04:39.523Z,14.10
2019-02-06T04:07:10.258Z,14.73
2019-02-06T04:09:40.892Z,15.30
2019-02-06T04:12:11.190Z,15.17
2019-02-06T04:14:42.154Z,14.57
2019-02-06T04:17:12.665Z,14.97
2019-02-06T04:19:42.973Z,15.20
2019-02-06T04:22:13.636Z,15.07
2019-02-06T04:24:44.269Z,15.17
2019-02-06T04:27:14.573Z,16.13
2019-02-06T04:29:44.848Z,16.63
2019-02-06T04:32:15.444Z,15.60
2019-02-06T04:34:46.575Z,17.70
2019-02-06T04:37:17.096Z,16.70
2019-02-06T04:39:47.652Z,17.57
2019-02-06T04:42:18.178Z,18.23
2019-02-06T04:44:48.953Z,17.27
2019-02-06T04:47:19.603Z,16.97
2019-02-06T04:49:50.386Z,16.87
2019-02-06T04:52:20.983Z,17.43
2019-02-06T04:54:51.216Z,18.30
2019-02-06T04:57:21.962Z,19.50
2019-02-06T04:59:52.594Z,19.03
2019-02-06T05:02:23.615Z,18.33
2019-02-06T05:04:54.181Z,19.23
2019-02-06T05:07:24.899Z,20.20
2019-02-06T05:09:55.534Z,20.23
2019-02-06T05:12:26.221Z,19.03
2019-02-06T05:14:56.960Z,19.40
2019-02-06T05:17:29.451Z,20.00
2019-02-06T05:20:05.967Z,20.60
2019-02-06T05:22:36.607Z,20.40
2019-02-06T05:25:08.876Z,19.67
2019-02-06T05:27:41.891Z,20.53
2019-02-06T05:30:13.727Z,21.97
2019-02-06T05:32:44.331Z,22.53
2019-02-06T05:35:15.166Z,22.07
2019-02-06T05:37:45.928Z,21.73
2019-02-06T05:40:16.556Z,23.80
2019-02-06T05:42:49.026Z,22.57
2019-02-06T05:45:20.710Z,22.63
2019-02-06T05:47:51.399Z,24.63
2019-02-06T05:50:22.276Z,23.10
2019-02-06T05:52:54.549Z,23.07
2019-02-06T05:55:26.881Z,22.87
2019-02-06T05:57:57.486Z,22.70
2019-02-06T06:00:29.676Z,23.00
2019-02-06T06:03:00.406Z,23.00
2019-02-06T06:05:31.039Z,23.13
2019-02-06T06:08:01.917Z,24.63
2019-02-06T06:10:32.605Z,25.83
2019-02-06T06:13:03.349Z,25.03
2019-02-06T06:15:34.106Z,26.30
2019-02-06T06:18:04.810Z,25.43
2019-02-06T06:20:35.546Z,25.67
2019-02-06T06:23:05.905Z,26.97
2019-02-06T06:25:36.603Z,27.07
2019-02-06T06:28:07.151Z,30.00
2019-02-06T06:30:37.865Z,27.73
2019-02-06T06:33:08.400Z,28.27
2019-02-06T06:35:39.140Z,26.70
2019-02-06T06:38:10.190Z,27.27
2019-02-06T06:40:40.944Z,26.43
2019-02-06T06:43:11.292Z,26.97
2019-02-06T06:45:42.078Z,26.53
2019-02-06T06:48:12.803Z,26.73
2019-02-06T06:50:43.541Z,27.83
2019-02-06T06:53:14.084Z,26.63
2019-02-06T06:55:44.706Z,27.70
2019-02-06T06:58:18.949Z,27.90
2019-02-06T07:00:49.562Z,27.43
2019-02-06T07:03:20.487Z,28.00
2019-02-06T07:05:51.112Z,27.60
2019-02-06T07:08:21.880Z,27.43
2019-02-06T07:10:52.619Z,27.87
2019-02-06T07:13:23.345Z,28.77
2019-02-06T07:15:54.080Z,28.33
2019-02-06T07:18:25.086Z,29.47
2019-02-06T07:20:55.755Z,28.90
2019-02-06T07:23:26.037Z,31.07
2019-02-06T07:25:56.700Z,29.43
2019-02-06T07:28:27.335Z,30.43
2019-02-06T07:30:57.963Z,28.93
2019-02-06T07:33:30.478Z,29.17
2019-02-06T07:36:01.454Z,27.43
2019-02-06T07:38:32.116Z,28.33
2019-02-06T07:41:06.520Z,28.67
2019-02-06T07:43:38.596Z,29.53
2019-02-06T07:46:09.435Z,29.33
2019-02-06T07:48:40.040Z,29.07
2019-02-06T07:51:10.700Z,27.87
2019-02-06T07:53:42.968Z,29.23
2019-02-06T07:56:13.679Z,28.07
2019-02-06T07:58:45.557Z,28.47
2019-02-06T08:01:16.291Z,28.20
2019-02-06T08:03:46.917Z,28.50
2019-02-06T08:06:17.646Z,27.07
2019-02-06T08:08:48.327Z,28.10
2019-02-06T08:11:21.513Z,26.17
2019-02-06T08:13:51.386Z,28.03
2019-02-06T08:16:22.123Z,27.50
2019-02-06T08:18:54.936Z,27.17
2019-02-06T08:21:25.779Z,27.80
2019-02-06T08:23:56.503Z,28.43
2019-02-06T08:26:27.246Z,29.60
2019-02-06T08:28:57.933Z,29.30
2019-02-06T08:31:28.844Z,30.23
2019-02-06T08:33:59.421Z,30.03
2019-02-06T08:36:32.305Z,29.83
2019-02-06T08:39:06.124Z,27.63
2019-02-06T08:41:37.886Z,27.00
2019-02-06T08:44:12.316Z,27.90
2019-02-06T08:46:43.042Z,26.47
2019-02-06T08:49:13.885Z,27.20
2019-02-06T08:51:44.590Z,26.73
2019-02-06T08:54:14.858Z,26.13
2019-02-06T08:56:45.575Z,26.50
2019-02-06T08:59:16.949Z,27.77
2019-02-06T09:01:50.060Z,25.80
2019-02-06T09:04:23.264Z,26.90
2019-02-06T09:06:54.008Z,26.33
2019-02-06T09:09:26.352Z,25.87
2019-02-06T09:11:57.196Z,24.70
2019-02-06T09:14:27.852Z,25.43
2019-02-06T09:16:58.884Z,25.47
2019-02-06T09:19:34.355Z,25.33
2019-02-06T09:22:07.790Z,25.80
2019-02-06T09:24:38.482Z,24.47
2019-02-06T09:27:09.110Z,26.40
2019-02-06T09:29:40.417Z,23.67
2019-02-06T09:32:11.465Z,24.87
2019-02-06T09:34:42.161Z,23.87
2019-02-06T09:37:12.860Z,24.57
2019-02-06T09:39:43.514Z,24.47
2019-02-06T09:42:14.116Z,23.97
2019-02-06T09:44:46.240Z,23.03
2019-02-06T09:47:16.624Z,23.03
2019-02-06T09:49:49.801Z,22.13
2019-02-06T09:52:19.724Z,22.43
2019-02-06T09:54:50.483Z,22.33
2019-02-06T09:57:21.800Z,22.60
2019-02-06T09:59:52.726Z,23.47
2019-02-06T10:02:23.711Z,22.67
2019-02-06T10:04:54.455Z,22.53
2019-02-06T10:07:25.172Z,22.03
2019-02-06T10:09:57.936Z,21.93
2019-02-06T10:12:28.283Z,22.07
2019-02-06T10:14:58.809Z,22.17
2019-02-06T10:17:29.562Z,21.47
2019-02-06T10:20:00.352Z,21.73
2019-02-06T10:22:31.008Z,21.90
2019-02-06T10:25:03.397Z,22.70
2019-02-06T10:27:34.741Z,22.23
2019-02-06T10:30:14.940Z,22.33
2019-02-06T10:32:45.957Z,22.27
2019-02-06T10:35:17.472Z,21.60
2019-02-06T10:37:47.842Z,21.00
2019-02-06T10:40:19.048Z,20.43
2019-02-06T10:42:49.686Z,21.03
2019-02-06T10:45:21.252Z,20.40
2019-02-06T10:47:52.383Z,19.60
2019-02-06T10:50:38.085Z,19.90
2019-02-06T10:53:09.953Z,18.80
2019-02-06T10:55:40.389Z,19.10
2019-02-06T10:58:11.394Z,18.97
2019-02-06T11:00:50.646Z,18.53
2019-02-06T11:03:20.947Z,16.93
2019-02-06T11:05:51.233Z,16.73
2019-02-06T11:08:22.204Z,15.97
2019-02-06T11:10:52.909Z,16.03
2019-02-06T11:13:23.604Z,16.00
2019-02-06T11:15:54.215Z,14.87
2019-02-06T11:18:24.938Z,14.60
2019-02-06T11:20:57.211Z,13.90
2019-02-06T11:23:33.112Z,13.33
2019-02-06T11:26:06.047Z,13.70
2019-02-06T11:28:38.215Z,12.97
2019-02-06T11:31:09.565Z,13.80
2019-02-06T11:33:51.310Z,14.07
2019-02-06T11:36:24.455Z,13.20
2019-02-06T11:38:54.712Z,14.07
2019-02-06T11:41:25.047Z,13.43
2019-02-06T11:43:56.082Z,13.57
2019-02-06T11:46:26.796Z,14.07
2019-02-06T11:48:59.151Z,13.37
2019-02-06T11:51:30.209Z,14.70
2019-02-06T11:54:00.927Z,13.07
2019-02-06T11:56:31.599Z,13.63
2019-02-06T11:59:02.298Z,13.13
2019-02-06T12:01:33.457Z,13.07
2019-02-06T12:04:03.824Z,13.37
2019-02-06T12:06:34.214Z,12.30
2019-02-06T12:09:08.710Z,12.37
2019-02-06T12:11:41.101Z,12.47
2019-02-06T12:14:11.726Z,12.60
2019-02-06T12:16:42.467Z,12.00
2019-02-06T12:19:13.114Z,12.07
2019-02-06T12:21:43.955Z,10.73
2019-02-06T12:24:14.664Z,11.50
2019-02-06T12:26:45.444Z,10.93
2019-02-06T12:29:16.529Z,9.97
2019-02-06T12:31:47.268Z,10.67
2019-02-06T12:34:17.648Z,10.47
2019-02-06T12:36:48.464Z,10.27
2019-02-06T12:39:19.186Z,10.63
2019-02-06T12:41:49.994Z,10.63
2019-02-06T12:44:21.174Z,11.07
2019-02-06T12:46:51.809Z,10.67
2019-02-06T12:49:23.152Z,10.30
2019-02-06T12:51:53.501Z,11.53
2019-02-06T12:54:24.195Z,11.27
2019-02-06T12:56:55.013Z,11.53
2019-02-06T12:59:27.735Z,13.00
2019-02-06T13:01:58.383Z,12.70
2019-02-06T13:04:34.656Z,12.03
2019-02-06T13:07:01.353Z,11.63
2019-02-06T13:09:34.147Z,12.00
2019-02-06T13:12:05.049Z,12.23
2019-02-06T13:14:35.865Z,12.57
2019-02-06T13:17:07.087Z,12.37
2019-02-06T13:19:37.791Z,12.63
2019-02-06T13:22:08.694Z,13.27
2019-02-06T13:24:41.161Z,12.87
2019-02-06T13:27:12.438Z,12.23
2019-02-06T13:29:46.431Z,13.30
2019-02-06T13:32:17.381Z,12.07
2019-02-06T13:34:48.158Z,13.10
2019-02-06T13:37:19.166Z,13.13
2019-02-06T13:39:49.999Z,12.37
2019-02-06T13:42:20.614Z,12.17
2019-02-06T13:44:51.434Z,13.13
2019-02-06T13:47:22.346Z,11.87
2019-02-06T13:49:54.591Z,11.93
2019-02-06T13:52:25.481Z,12.70
2019-02-06T13:54:55.952Z,12.47
2019-02-06T13:57:33.704Z,12.40
2019-02-06T14:00:01.222Z,12.97
2019-02-06T14:02:33.495Z,13.33
2019-02-06T14:05:04.175Z,13.27
2019-02-06T14:07:34.538Z,13.40
2019-02-06T14:10:09.019Z,13.60
2019-02-06T14:12:39.762Z,12.37
2019-02-06T14:15:13.733Z,12.70
2019-02-06T14:17:44.403Z,13.63
2019-02-06T14:20:17.752Z,13.77
2019-02-06T14:22:51.749Z,13.97
2019-02-06T14:25:31.637Z,13.17
2019-02-06T14:28:11.640Z,13.63
2019-02-06T14:31:13.865Z,14.23
2019-02-06T14:33:59.752Z,12.77
2019-02-06T14:36:39.456Z,13.67
2019-02-06T14:39:31.771Z,13.53
2019-02-06T14:42:30.212Z,12.73
2019-02-06T14:45:33.036Z,14.57
2019-02-06T14:48:10.055Z,14.77
2019-02-06T14:50:44.076Z,14.53
2019-02-06T14:53:39.152Z,13.60
2019-02-06T14:56:21.757Z,13.73
2019-02-06T14:59:10.649Z,13.60
2019-02-06T15:01:53.545Z,13.67
2019-02-06T15:04:36.050Z,13.83
2019-02-06T15:07:15.715Z,13.50
2019-02-06T15:10:04.745Z,13.77
2019-02-06T15:12:50.548Z,13.80
2019-02-06T15:15:47.088Z,13.67
2019-02-06T15:18:42.036Z,14.07
2019-02-06T15:21:21.168Z,12.50
2019-02-06T15:24:19.284Z,13.30
2019-02-06T15:27:21.694Z,12.47
2019-02-06T15:30:01.960Z,14.77
2019-02-06T15:32:53.938Z,12.40
2019-02-06T15:35:33.547Z,14.30
2019-02-06T15:38:17.028Z,13.07
2019-02-06T15:41:09.207Z,12.73
2019-02-06T15:43:58.319Z,12.50
2019-02-06T15:46:32.274Z,12.60
2019-02-06T15:49:20.583Z,11.90
2019-02-06T15:52:06.670Z,13.23
2019-02-06T15:55:05.893Z,12.40
2019-02-06T15:57:56.196Z,11.90
2019-02-06T16:00:42.159Z,12.60
2019-02-06T16:03:29.372Z,12.60
2019-02-06T16:06:16.860Z,12.60
2019-02-06T16:08:59.568Z,12.43
2019-02-06T16:11:45.222Z,12.60
2019-02-06T16:14:21.718Z,12.30
2019-02-06T16:17:04.415Z,13.00
2019-02-06T16:19:38.310Z,12.33
2019-02-06T16:22:11.926Z,13.40
2019-02-06T16:24:48.737Z,13.07
2019-02-06T16:27:28.071Z,13.13
2019-02-06T16:30:25.704Z,13.77
2019-02-06T16:33:15.127Z,12.80
2019-02-06T16:36:03.988Z,12.50
2019-02-06T16:38:40.969Z,12.80
2019-02-06T16:41:23.778Z,13.10
2019-02-06T16:44:16.041Z,13.70
2019-02-06T16:47:13.342Z,13.37
2019-02-06T16:49:58.603Z,13.73
2019-02-06T16:52:44.614Z,14.47
2019-02-06T16:55:31.043Z,13.90
2019-02-06T16:58:16.873Z,14.73
2019-02-06T17:00:53.423Z,13.73
2019-02-06T17:04:00.936Z,14.13
2019-02-06T17:06:50.818Z,14.03
2019-02-06T17:09:41.719Z,13.80
2019-02-06T17:12:38.905Z,14.20
2019-02-06T17:15:18.932Z,14.17
2019-02-06T17:18:07.973Z,14.50
2019-02-06T17:21:06.670Z,14.47
2019-02-06T17:23:43.988Z,14.57
2019-02-06T17:26:31.676Z,14.60
2019-02-06T17:29:14.570Z,14.47
2019-02-06T17:32:15.555Z,14.70
2019-02-06T17:34:50.067Z,14.60
2019-02-06T17:37:48.598Z,15.33
2019-02-06T17:40:22.881Z,15.60
2019-02-06T17:42:57.349Z,15.07
2019-02-06T17:45:47.993Z,14.73
2019-02-06T17:48:41.091Z,13.87
2019-02-06T17:51:33.137Z,13.43
2019-02-06T17:54:12.447Z,14.40
2019-02-06T17:56:43.779Z,13.77
2019-02-06T17:59:14.576Z,14.47
2019-02-06T18:01:45.415Z,18.70
2019-02-06T18:04:16.147Z,14.73
2019-02-06T18:06:46.883Z,14.23
2019-02-06T18:09:17.899Z,14.60
2019-02-06T18:11:48.840Z,14.33
2019-02-06T18:14:19.588Z,15.43
2019-02-06T18:16:50.618Z,14.13
2019-02-06T18:19:21.840Z,14.23
2019-02-06T18:21:53.282Z,15.53
2019-02-06T18:24:24.049Z,14.57
2019-02-06T18:26:54.950Z,15.07
2019-02-06T18:29:25.613Z,14.40
2019-02-06T18:31:55.980Z,13.80
2019-02-06T18:34:26.663Z,13.67
2019-02-06T18:36:57.607Z,14.43
2019-02-06T18:39:28.331Z,14.07
2019-02-06T18:41:58.773Z,13.47
2019-02-06T18:44:29.517Z,13.40
2019-02-06T18:47:01.624Z,13.20
2019-02-06T18:49:32.607Z,14.50
2019-02-06T18:52:03.880Z,13.47
2019-02-06T18:54:35.224Z,14.40
2019-02-06T18:57:06.954Z,14.60
2019-02-06T18:59:38.081Z,15.00
2019-02-06T19:02:09.230Z,13.77
2019-02-06T19:04:41.441Z,14.07
2019-02-06T19:07:12.746Z,13.97
2019-02-06T19:09:44.317Z,13.50
2019-02-06T19:12:15.428Z,13.63
2019-02-06T19:14:46.677Z,14.00
2019-02-06T19:17:17.710Z,12.73
2019-02-06T19:19:48.920Z,13.57
2019-02-06T19:22:20.618Z,13.50
2019-02-06T19:24:52.589Z,13.63
2019-02-06T19:27:23.787Z,12.83
2019-02-06T19:29:55.461Z,13.70
2019-02-06T19:32:27.216Z,14.17
2019-02-06T19:34:58.772Z,13.50
2019-02-06T19:37:29.816Z,13.60
2019-02-06T19:40:00.802Z,13.67
2019-02-06T19:42:32.523Z,13.50
2019-02-06T19:45:04.337Z,13.57
2019-02-06T19:47:36.021Z,14.60
2019-02-06T19:50:13.520Z,13.70
2019-02-06T19:52:45.299Z,18.27
2019-02-06T19:55:18.108Z,18.50
2019-02-06T19:57:51.204Z,16.03
2019-02-06T20:00:28.265Z,13.73
2019-02-06T20:03:00.206Z,13.60
2019-02-06T20:05:32.271Z,13.30
2019-02-06T20:08:04.519Z,14.30
2019-02-06T20:10:54.087Z,14.27
2019-02-06T20:13:25.461Z,13.77
2019-02-06T20:15:57.398Z,13.47
2019-02-06T20:18:29.190Z,13.83
2019-02-06T20:21:01.180Z,13.60
2019-02-06T20:23:33.169Z,13.10
2019-02-06T20:26:05.019Z,13.50
2019-02-06T20:28:36.390Z,13.50
2019-02-06T20:31:07.759Z,13.30
2019-02-06T20:33:39.674Z,13.63
2019-02-06T20:36:12.790Z,13.03
2019-02-06T20:38:44.414Z,11.90
2019-02-06T20:41:15.771Z,13.40
2019-02-06T20:43:47.434Z,13.57
2019-02-06T20:46:20.225Z,13.33
2019-02-06T20:48:51.735Z,13.43
2019-02-06T20:51:24.133Z,13.50
2019-02-06T20:53:55.390Z,13.60
2019-02-06T20:56:25.925Z,13.90
2019-02-06T20:58:56.690Z,14.67
2019-02-06T21:01:27.888Z,13.13
2019-02-06T21:03:59.174Z,13.13
2019-02-06T21:06:36.294Z,12.90
2019-02-06T21:09:10.601Z,12.80
2019-02-06T21:11:41.945Z,12.57
2019-02-06T21:14:13.925Z,12.70
2019-02-06T21:16:45.098Z,12.50
2019-02-06T21:19:16.937Z,12.17
2019-02-06T21:21:47.868Z,12.57
2019-02-06T21:24:19.490Z,12.37
2019-02-06T21:26:51.021Z,12.23
2019-02-06T21:29:22.766Z,11.93
2019-02-06T21:31:55.986Z,11.40
2019-02-06T21:34:27.176Z,11.67
2019-02-06T21:36:58.106Z,11.13
2019-02-06T21:39:29.053Z,11.33
2019-02-06T21:42:00.243Z,12.27
2019-02-06T21:44:31.701Z,12.00
2019-02-06T21:47:02.312Z,11.27
2019-02-06T21:49:34.170Z,11.73
2019-02-06T21:52:05.276Z,11.83
2019-02-06T21:54:36.960Z,11.03
2019-02-06T21:57:08.845Z,11.87
2019-02-06T21:59:40.129Z,11.70
2019-02-06T22:02:11.368Z,12.40
2019-02-06T22:04:42.149Z,12.10
2019-02-06T22:07:13.056Z,11.07
2019-02-06T22:09:45.793Z,12.03
2019-02-06T22:12:16.480Z,11.30
2019-02-06T22:14:47.791Z,12.03
2019-02-06T22:17:18.616Z,12.33
2019-02-06T22:19:49.347Z,12.07
2019-02-06T22:22:21.537Z,12.07
2019-02-06T22:24:52.686Z,11.40
2019-02-06T22:27:23.951Z,11.90
2019-02-06T22:29:55.308Z,13.00
2019-02-06T22:32:26.350Z,12.43
2019-02-06T22:34:58.113Z,12.00
2019-02-06T22:37:29.044Z,12.97
2019-02-06T22:40:00.800Z,12.60
2019-02-06T22:42:32.008Z,12.43
2019-02-06T22:45:03.451Z,11.90
2019-02-06T22:47:34.950Z,12.10
2019-02-06T22:50:09.092Z,11.70
2019-02-06T22:52:40.706Z,12.50
2019-02-06T22:55:13.593Z,12.17
2019-02-06T22:57:44.778Z,11.80
2019-02-06T23:00:24.788Z,11.50
2019-02-06T23:02:55.587Z,11.33
2019-02-06T23:05:26.313Z,11.70
2019-02-06T23:07:57.366Z,12.67
2019-02-06T23:10:28.241Z,12.70
2019-02-06T23:12:59.632Z,12.43
2019-02-06T23:15:30.525Z,12.37
2019-02-06T23:18:01.268Z,11.73
2019-02-06T23:20:31.664Z,12.23
2019-02-06T23:23:02.258Z,11.80
2019-02-06T23:25:32.723Z,12.53
2019-02-06T23:28:03.354Z,11.77
2019-02-06T23:30:34.490Z,12.37
2019-02-06T23:33:05.399Z,12.07
2019-02-06T23:35:36.247Z,12.10
2019-02-06T23:38:07.013Z,12.50
2019-02-06T23:40:37.707Z,12.27
2019-02-06T23:43:09.509Z,12.00
2019-02-06T23:45:40.189Z,12.73
2019-02-06T23:48:25.523Z,12.13
2019-02-06T23:50:56.333Z,11.90
2019-02-06T23:53:27.603Z,11.90
2019-02-06T23:55:58.018Z,11.90
2019-02-06T23:58:28.407Z,11.87
